createdAt,value
2022-11-29T00:01:19.905Z,53.08
2022-11-29T00:03:46.938Z,51.33
2022-11-29T00:06:16.961Z,50.85
2022-11-29T00:08:44.271Z,56.25
2022-11-29T00:11:13.967Z,55.35
2022-11-29T00:13:40.896Z,57.30
2022-11-29T00:16:10.743Z,53.33
2022-11-29T00:18:37.679Z,56.25
2022-11-29T00:21:08.639Z,53.60
2022-11-29T00:23:36.144Z,56.67
2022-11-29T00:26:07.351Z,51.50
2022-11-29T00:28:36.115Z,52.92
2022-11-29T00:31:23.875Z,53.35
2022-11-29T00:33:51.431Z,53.28
2022-11-29T00:36:19.421Z,50.17
2022-11-29T00:38:46.186Z,54.72
2022-11-29T00:41:13.187Z,54.10
2022-11-29T00:43:40.551Z,49.28
2022-11-29T00:46:08.623Z,53.30
2022-11-29T00:48:35.937Z,56.75
2022-11-29T00:51:03.898Z,58.30
2022-11-29T00:53:31.114Z,55.97
2022-11-29T00:55:57.932Z,53.00
2022-11-29T00:58:24.911Z,56.55
2022-11-29T01:00:53.259Z,55.33
2022-11-29T01:03:20.346Z,57.42
2022-11-29T01:05:47.832Z,52.35
2022-11-29T01:08:15.525Z,57.83
2022-11-29T01:10:42.181Z,53.47
2022-11-29T01:13:09.912Z,55.55
2022-11-29T01:15:37.079Z,57.97
2022-11-29T01:18:03.856Z,53.72
2022-11-29T01:20:30.502Z,60.63
2022-11-29T01:22:57.207Z,55.47
2022-11-29T01:25:23.871Z,52.88
2022-11-29T01:27:50.570Z,55.53
2022-11-29T01:30:17.418Z,61.00
2022-11-29T01:32:44.072Z,55.78
2022-11-29T01:35:10.830Z,56.25
2022-11-29T01:37:37.465Z,53.33
2022-11-29T01:40:04.590Z,54.17
2022-11-29T01:42:31.218Z,55.70
2022-11-29T01:45:06.293Z,56.85
2022-11-29T01:47:33.821Z,56.35
2022-11-29T01:50:02.544Z,51.50
2022-11-29T01:52:32.786Z,61.92
2022-11-29T01:55:03.887Z,56.97
2022-11-29T01:57:32.873Z,55.42
2022-11-29T02:00:06.511Z,60.40
2022-11-29T02:02:38.260Z,57.17
2022-11-29T02:05:05.431Z,53.13
2022-11-29T02:07:32.253Z,56.90
2022-11-29T02:09:59.224Z,57.45
2022-11-29T02:12:31.859Z,51.58
2022-11-29T02:15:25.502Z,58.22
2022-11-29T02:18:29.541Z,56.28
2022-11-29T02:21:16.248Z,58.28
2022-11-29T02:23:49.067Z,54.63
2022-11-29T02:26:34.264Z,59.70
2022-11-29T02:29:12.964Z,54.78
2022-11-29T02:32:25.079Z,58.17
2022-11-29T02:35:16.797Z,55.42
2022-11-29T02:37:52.434Z,58.22
2022-11-29T02:40:35.004Z,59.88
2022-11-29T02:43:16.505Z,59.33
2022-11-29T02:46:03.244Z,61.03
2022-11-29T02:48:48.540Z,55.38
2022-11-29T02:51:27.620Z,62.53
2022-11-29T02:54:00.086Z,58.20
2022-11-29T02:56:34.547Z,62.38
2022-11-29T02:59:20.826Z,55.92
2022-11-29T03:01:50.578Z,56.53
2022-11-29T03:04:35.819Z,62.33
2022-11-29T03:07:25.228Z,59.70
2022-11-29T03:10:03.079Z,61.38
2022-11-29T03:12:40.211Z,56.13
2022-11-29T03:15:28.610Z,54.55
2022-11-29T03:18:08.013Z,54.55
2022-11-29T03:20:53.250Z,52.05
2022-11-29T03:23:29.742Z,52.45
2022-11-29T03:26:05.353Z,58.80
2022-11-29T03:28:37.830Z,58.67
2022-11-29T03:31:25.539Z,55.05
2022-11-29T03:34:09.321Z,62.67
2022-11-29T03:36:43.361Z,60.10
2022-11-29T03:39:34.013Z,60.72
2022-11-29T03:42:05.858Z,55.67
2022-11-29T03:44:40.365Z,55.85
2022-11-29T03:47:13.106Z,56.85
2022-11-29T03:50:00.104Z,59.75
2022-11-29T03:52:42.424Z,60.60
2022-11-29T03:55:22.222Z,55.17
2022-11-29T03:57:48.835Z,54.30
2022-11-29T04:00:16.676Z,53.13
2022-11-29T04:03:19.039Z,52.33
2022-11-29T04:05:48.459Z,55.10
2022-11-29T04:08:39.191Z,52.97
2022-11-29T04:11:27.332Z,57.00
2022-11-29T04:14:31.870Z,59.17
2022-11-29T04:17:33.930Z,55.63
2022-11-29T04:20:00.512Z,57.60
2022-11-29T04:22:52.308Z,57.80
2022-11-29T04:25:43.812Z,52.45
2022-11-29T04:28:27.894Z,56.92
2022-11-29T04:31:24.907Z,55.63
2022-11-29T04:34:00.312Z,56.63
2022-11-29T04:36:42.027Z,55.25
2022-11-29T04:39:52.434Z,52.78
2022-11-29T04:43:00.839Z,52.55
2022-11-29T04:45:48.685Z,57.17
2022-11-29T04:48:34.043Z,54.72
2022-11-29T04:51:22.005Z,57.00
2022-11-29T04:54:09.148Z,52.13
2022-11-29T04:56:46.963Z,56.70
2022-11-29T04:59:19.324Z,54.08
2022-11-29T05:02:14.632Z,55.63
2022-11-29T05:04:47.347Z,55.58
2022-11-29T05:07:40.674Z,55.03
2022-11-29T05:10:22.449Z,56.13
2022-11-29T05:12:58.254Z,51.80
2022-11-29T05:15:43.097Z,55.47
2022-11-29T05:18:26.195Z,56.53
2022-11-29T05:21:09.067Z,55.17
2022-11-29T05:24:12.713Z,52.47
2022-11-29T05:26:55.181Z,57.38
2022-11-29T05:29:40.215Z,53.08
2022-11-29T05:32:30.031Z,53.50
2022-11-29T05:35:38.440Z,56.90
2022-11-29T05:38:19.949Z,59.65
2022-11-29T05:40:54.132Z,52.75
2022-11-29T05:46:12.751Z,56.40
2022-11-29T05:49:07.049Z,54.95
2022-11-29T05:52:21.213Z,57.10
2022-11-29T05:55:16.116Z,57.92
2022-11-29T06:00:58.702Z,57.20
2022-11-29T06:03:51.314Z,55.45
2022-11-29T06:06:44.347Z,51.15
2022-11-29T06:09:37.587Z,52.85
2022-11-29T06:12:14.892Z,51.25
2022-11-29T06:15:01.287Z,51.47
2022-11-29T06:18:01.580Z,54.08
2022-11-29T06:20:58.550Z,53.65
2022-11-29T06:24:06.906Z,52.25
2022-11-29T06:26:44.855Z,55.33
2022-11-29T06:29:34.682Z,56.22
2022-11-29T06:32:10.140Z,51.65
2022-11-29T06:34:49.054Z,54.38
2022-11-29T06:37:22.971Z,49.67
2022-11-29T06:39:49.948Z,50.53
2022-11-29T06:42:16.695Z,55.53
2022-11-29T06:44:44.032Z,56.10
2022-11-29T06:47:37.727Z,52.10
2022-11-29T06:50:13.643Z,53.20
2022-11-29T06:53:07.342Z,57.80
2022-11-29T06:55:47.234Z,50.47
2022-11-29T06:58:40.541Z,54.70
2022-11-29T07:01:25.935Z,53.40
2022-11-29T07:04:31.275Z,50.40
2022-11-29T07:06:58.208Z,57.50
2022-11-29T07:09:30.411Z,51.45
2022-11-29T07:11:57.297Z,54.10
2022-11-29T07:14:24.139Z,49.38
2022-11-29T07:16:57.476Z,57.53
2022-11-29T07:19:36.772Z,56.22
2022-11-29T07:22:29.649Z,53.00
2022-11-29T07:25:08.069Z,53.78
2022-11-29T07:27:49.862Z,56.47
2022-11-29T07:30:20.720Z,54.13
2022-11-29T07:33:02.875Z,53.72
2022-11-29T07:35:37.194Z,56.65
2022-11-29T07:38:29.394Z,59.88
2022-11-29T07:41:13.272Z,56.40
2022-11-29T07:43:49.933Z,56.20
2022-11-29T07:46:16.600Z,53.83
2022-11-29T07:48:43.384Z,51.67
2022-11-29T07:51:10.994Z,54.17
2022-11-29T07:53:42.407Z,55.55
2022-11-29T07:56:12.543Z,55.50
2022-11-29T07:58:39.459Z,55.85
2022-11-29T08:01:06.390Z,51.28
2022-11-29T08:03:35.333Z,58.47
2022-11-29T08:06:02.793Z,51.25
2022-11-29T08:08:29.428Z,50.10
2022-11-29T08:10:56.169Z,49.42
2022-11-29T08:13:22.911Z,57.72
2022-11-29T08:15:49.695Z,51.60
2022-11-29T08:18:16.691Z,51.00
2022-11-29T08:20:43.684Z,53.35
2022-11-29T08:23:13.100Z,49.63
2022-11-29T08:25:40.085Z,52.97
2022-11-29T08:28:06.775Z,53.38
2022-11-29T08:30:33.468Z,55.55
2022-11-29T08:33:00.115Z,54.42
2022-11-29T08:35:26.924Z,57.17
2022-11-29T08:37:54.898Z,57.78
2022-11-29T08:40:21.864Z,53.05
2022-11-29T08:42:48.592Z,57.20
2022-11-29T08:45:15.289Z,54.92
2022-11-29T08:47:42.897Z,58.08
2022-11-29T08:50:18.021Z,54.95
2022-11-29T08:53:05.529Z,55.05
2022-11-29T08:55:37.628Z,51.72
2022-11-29T08:58:07.116Z,55.88
2022-11-29T09:00:34.632Z,56.67
2022-11-29T09:03:24.813Z,52.83
2022-11-29T09:05:52.238Z,52.85
2022-11-29T09:08:19.387Z,56.78
2022-11-29T09:10:47.900Z,53.47
2022-11-29T09:13:14.842Z,58.03
2022-11-29T09:15:43.454Z,54.33
2022-11-29T09:18:10.354Z,54.00
2022-11-29T09:20:37.173Z,53.28
2022-11-29T09:23:04.046Z,52.80
2022-11-29T09:25:30.736Z,53.03
2022-11-29T09:28:03.488Z,53.45
2022-11-29T09:30:38.118Z,54.72
2022-11-29T09:33:05.105Z,55.20
2022-11-29T09:35:32.393Z,48.15
2022-11-29T09:37:59.109Z,51.38
2022-11-29T09:40:42.296Z,58.17
2022-11-29T09:43:29.077Z,52.58
2022-11-29T09:46:05.683Z,54.42
2022-11-29T09:48:55.422Z,53.92
2022-11-29T09:51:55.079Z,55.42
2022-11-29T09:54:49.668Z,58.30
2022-11-29T09:57:17.537Z,52.90
2022-11-29T09:59:49.519Z,56.95
2022-11-29T10:02:32.882Z,51.85
2022-11-29T10:05:09.684Z,53.53
2022-11-29T10:07:53.034Z,58.70
2022-11-29T10:10:28.084Z,54.00
2022-11-29T10:13:24.026Z,54.20
2022-11-29T10:15:57.660Z,57.25
2022-11-29T10:19:01.811Z,56.65
2022-11-29T10:21:35.123Z,57.37
2022-11-29T10:24:07.507Z,58.25
2022-11-29T10:26:35.439Z,58.97
2022-11-29T10:29:02.576Z,56.00
2022-11-29T10:31:36.899Z,60.38
2022-11-29T10:34:18.888Z,56.28
2022-11-29T10:36:47.647Z,53.05
2022-11-29T10:39:25.776Z,54.30
2022-11-29T10:41:56.655Z,56.03
2022-11-29T10:44:24.792Z,51.40
2022-11-29T10:46:52.802Z,55.97
2022-11-29T10:49:24.870Z,58.60
2022-11-29T10:51:51.584Z,53.08
2022-11-29T10:54:34.507Z,54.78
2022-11-29T10:57:01.891Z,53.53
2022-11-29T10:59:30.676Z,56.47
2022-11-29T11:01:57.898Z,56.40
2022-11-29T11:04:36.660Z,61.42
2022-11-29T11:07:06.340Z,54.95
2022-11-29T11:09:41.566Z,53.20
2022-11-29T11:12:20.769Z,59.42
2022-11-29T11:14:47.779Z,53.78
2022-11-29T11:17:32.692Z,56.38
2022-11-29T11:20:02.416Z,57.38
2022-11-29T11:22:31.220Z,54.10
2022-11-29T11:25:24.683Z,56.50
2022-11-29T11:27:51.413Z,54.40
2022-11-29T11:30:27.128Z,59.53
2022-11-29T11:33:34.057Z,57.60
2022-11-29T11:36:00.718Z,62.17
2022-11-29T11:38:27.632Z,51.28
2022-11-29T11:41:45.568Z,58.00
2022-11-29T11:44:47.254Z,53.85
2022-11-29T11:47:18.527Z,55.53
2022-11-29T11:50:03.372Z,53.35
2022-11-29T11:52:46.150Z,61.50
2022-11-29T11:55:43.453Z,56.38
2022-11-29T11:58:12.660Z,55.03
2022-11-29T12:01:06.021Z,57.05
2022-11-29T12:03:51.576Z,53.53
2022-11-29T12:06:48.726Z,50.08
2022-11-29T12:09:40.628Z,54.33
2022-11-29T12:12:37.670Z,54.22
2022-11-29T12:15:08.958Z,53.88
2022-11-29T12:18:06.616Z,52.88
2022-11-29T12:20:44.267Z,52.90
2022-11-29T12:23:16.814Z,56.53
2022-11-29T12:25:48.884Z,54.08
2022-11-29T12:28:20.603Z,54.40
2022-11-29T12:30:59.892Z,53.13
2022-11-29T12:33:26.563Z,53.83
2022-11-29T12:36:02.143Z,51.25
2022-11-29T12:38:34.643Z,53.30
2022-11-29T12:41:07.157Z,53.85
2022-11-29T12:43:59.883Z,61.97
2022-11-29T12:46:28.349Z,54.10
2022-11-29T12:49:09.960Z,50.22
2022-11-29T12:52:13.470Z,55.05
2022-11-29T12:55:21.245Z,58.00
2022-11-29T12:58:25.431Z,55.47
2022-11-29T13:01:16.942Z,58.30
2022-11-29T13:03:54.104Z,52.13
2022-11-29T13:06:32.611Z,50.28
2022-11-29T13:09:17.281Z,58.75
2022-11-29T13:11:58.107Z,53.78
2022-11-29T13:14:44.251Z,58.55
2022-11-29T13:17:35.013Z,56.25
2022-11-29T13:20:19.674Z,57.28
2022-11-29T13:23:18.043Z,55.20
2022-11-29T13:25:50.640Z,54.47
2022-11-29T13:28:37.146Z,51.25
2022-11-29T13:31:09.408Z,56.58
2022-11-29T13:34:01.570Z,53.53
2022-11-29T13:36:43.672Z,54.63
2022-11-29T13:39:35.832Z,59.45
2022-11-29T13:42:20.083Z,52.17
2022-11-29T13:44:50.373Z,54.45
2022-11-29T13:47:18.963Z,54.75
2022-11-29T13:50:03.632Z,55.33
2022-11-29T13:52:43.424Z,55.83
2022-11-29T13:55:12.863Z,52.88
2022-11-29T13:58:15.541Z,55.58
2022-11-29T14:00:44.038Z,57.63
2022-11-29T14:03:28.963Z,54.63
2022-11-29T14:06:01.825Z,59.55
2022-11-29T14:11:44.701Z,55.75
2022-11-29T14:14:24.534Z,54.85
2022-11-29T14:16:57.798Z,51.25
2022-11-29T14:19:33.703Z,60.47
2022-11-29T14:22:06.889Z,53.75
2022-11-29T14:24:36.346Z,57.53
2022-11-29T14:27:23.326Z,56.88
2022-11-29T14:29:53.916Z,55.67
2022-11-29T14:32:25.473Z,53.13
2022-11-29T14:35:06.548Z,55.50
2022-11-29T14:37:52.011Z,55.53
2022-11-29T14:40:44.839Z,54.47
2022-11-29T14:43:37.098Z,53.63
2022-11-29T14:46:16.021Z,62.72
2022-11-29T14:48:56.560Z,57.65
2022-11-29T14:51:26.366Z,57.67
2022-11-29T14:54:13.048Z,52.97
2022-11-29T14:56:42.690Z,59.33
2022-11-29T14:59:43.527Z,61.08
2022-11-29T15:02:37.830Z,57.90
2022-11-29T15:05:20.714Z,57.50
2022-11-29T15:08:01.668Z,56.60
2022-11-29T15:10:33.466Z,61.75
2022-11-29T15:13:01.177Z,62.03
2022-11-29T15:15:38.561Z,56.22
2022-11-29T15:18:17.541Z,55.40
2022-11-29T15:20:54.881Z,54.58
2022-11-29T15:23:21.759Z,55.58
2022-11-29T15:25:51.508Z,58.13
2022-11-29T15:28:24.730Z,52.70
2022-11-29T15:31:11.107Z,53.92
2022-11-29T15:33:42.017Z,62.10
2022-11-29T15:36:17.818Z,60.70
2022-11-29T15:38:47.626Z,60.92
2022-11-29T15:41:31.780Z,64.50
2022-11-29T15:44:00.540Z,56.75
2022-11-29T15:46:29.226Z,58.17
2022-11-29T15:49:22.260Z,58.25
2022-11-29T15:51:56.720Z,61.75
2022-11-29T15:54:37.946Z,62.50
2022-11-29T15:57:15.455Z,69.13
2022-11-29T16:00:03.788Z,65.82
2022-11-29T16:02:45.777Z,62.50
2022-11-29T16:05:42.129Z,71.93
2022-11-29T16:08:15.979Z,71.82
2022-11-29T16:10:49.362Z,74.30
2022-11-29T16:13:36.907Z,71.25
2022-11-29T16:16:16.249Z,67.13
2022-11-29T16:18:46.479Z,69.72
2022-11-29T16:21:28.813Z,81.10
2022-11-29T16:23:56.684Z,85.53
2022-11-29T16:26:26.223Z,114.22
2022-11-29T16:28:56.435Z,95.30
2022-11-29T16:31:34.239Z,81.22
2022-11-29T16:34:27.988Z,71.45
2022-11-29T16:37:01.131Z,68.07
2022-11-29T16:39:28.716Z,66.55
2022-11-29T16:42:14.523Z,65.63
2022-11-29T16:44:41.380Z,70.65
2022-11-29T16:47:29.581Z,67.15
2022-11-29T16:50:20.645Z,69.03
2022-11-29T16:52:52.000Z,68.47
2022-11-29T16:57:48.931Z,66.97
2022-11-29T17:00:26.893Z,71.18
2022-11-29T17:02:53.545Z,72.20
2022-11-29T17:05:20.265Z,68.20
2022-11-29T17:07:47.772Z,70.85
2022-11-29T17:10:18.511Z,73.15
2022-11-29T17:12:48.219Z,76.47
2022-11-29T17:15:15.555Z,72.75
2022-11-29T17:17:43.543Z,70.65
2022-11-29T17:20:12.713Z,80.22
2022-11-29T17:22:39.593Z,66.00
2022-11-29T17:25:07.057Z,73.18
2022-11-29T17:27:33.715Z,73.03
2022-11-29T17:30:00.447Z,71.95
2022-11-29T17:32:27.373Z,71.30
2022-11-29T17:34:54.178Z,66.18
2022-11-29T17:37:20.853Z,70.45
2022-11-29T17:39:48.997Z,70.93
2022-11-29T17:42:15.823Z,75.00
2022-11-29T17:44:42.523Z,68.25
2022-11-29T17:47:09.215Z,68.28
2022-11-29T17:49:35.846Z,68.85
2022-11-29T17:52:02.679Z,68.97
2022-11-29T17:54:32.851Z,73.93
2022-11-29T17:57:00.737Z,87.07
2022-11-29T17:59:27.469Z,69.65
2022-11-29T18:01:54.276Z,72.50
2022-11-29T18:04:21.074Z,71.03
2022-11-29T18:06:49.675Z,68.88
2022-11-29T18:09:17.373Z,70.78
2022-11-29T18:11:48.708Z,70.97
2022-11-29T18:14:28.159Z,74.28
2022-11-29T18:16:55.259Z,70.03
2022-11-29T18:19:23.141Z,66.88
2022-11-29T18:21:50.641Z,69.25
2022-11-29T18:24:17.845Z,71.32
2022-11-29T18:26:44.822Z,72.85
2022-11-29T18:29:11.498Z,68.47
2022-11-29T18:31:40.936Z,73.18
2022-11-29T18:34:11.424Z,75.95
2022-11-29T18:36:42.916Z,67.85
2022-11-29T18:39:15.364Z,76.03
2022-11-29T18:41:43.881Z,78.85
2022-11-29T18:44:13.650Z,73.40
2022-11-29T18:46:43.036Z,78.57
2022-11-29T18:49:12.088Z,75.32
2022-11-29T18:51:39.428Z,92.57
2022-11-29T18:54:06.547Z,77.55
2022-11-29T18:56:34.804Z,80.90
2022-11-29T18:59:04.171Z,77.07
2022-11-29T19:01:34.605Z,78.57
2022-11-29T19:04:01.760Z,74.53
2022-11-29T19:06:38.615Z,77.90
2022-11-29T19:09:07.828Z,79.85
2022-11-29T19:11:34.942Z,74.57
2022-11-29T19:14:04.842Z,84.28
2022-11-29T19:16:33.535Z,80.88
2022-11-29T19:19:01.242Z,75.10
2022-11-29T19:21:31.128Z,81.20
2022-11-29T19:24:00.223Z,79.03
2022-11-29T19:26:28.776Z,77.93
2022-11-29T19:28:56.184Z,81.72
2022-11-29T19:31:25.117Z,77.45
2022-11-29T19:33:52.630Z,75.75
2022-11-29T19:36:25.528Z,82.13
2022-11-29T19:38:54.285Z,82.70
2022-11-29T19:41:24.497Z,78.00
2022-11-29T19:43:53.086Z,77.22
2022-11-29T19:46:25.163Z,83.57
2022-11-29T19:48:52.820Z,84.50
2022-11-29T19:51:20.206Z,77.72
2022-11-29T19:53:47.651Z,79.95
2022-11-29T19:56:16.743Z,74.60
2022-11-29T19:58:44.312Z,78.60
2022-11-29T20:01:16.501Z,80.15
2022-11-29T20:03:44.830Z,80.25
2022-11-29T20:06:13.597Z,83.45
2022-11-29T20:08:41.203Z,80.35
2022-11-29T20:11:12.382Z,85.68
2022-11-29T20:13:41.020Z,84.15
2022-11-29T20:16:10.919Z,83.10
2022-11-29T20:18:42.605Z,80.60
2022-11-29T20:21:15.787Z,81.78
2022-11-29T20:23:43.601Z,78.22
2022-11-29T20:26:18.180Z,82.38
2022-11-29T20:28:45.744Z,82.32
2022-11-29T20:31:15.831Z,82.05
2022-11-29T20:33:44.338Z,81.40
2022-11-29T20:36:26.030Z,74.78
2022-11-29T20:39:07.501Z,81.45
2022-11-29T20:41:55.660Z,78.63
2022-11-29T20:44:51.408Z,84.70
2022-11-29T20:47:23.340Z,85.28
2022-11-29T20:49:50.566Z,86.47
2022-11-29T20:52:49.377Z,79.53
2022-11-29T20:55:16.108Z,82.78
2022-11-29T20:57:42.821Z,79.50
2022-11-29T21:00:11.891Z,82.03
2022-11-29T21:02:39.006Z,85.10
2022-11-29T21:05:06.302Z,83.43
2022-11-29T21:07:32.985Z,79.57
2022-11-29T21:10:01.515Z,83.75
2022-11-29T21:12:30.177Z,85.07
2022-11-29T21:14:57.828Z,85.78
2022-11-29T21:17:28.770Z,88.60
2022-11-29T21:19:58.773Z,83.90
2022-11-29T21:22:28.820Z,80.93
2022-11-29T21:25:26.476Z,82.25
2022-11-29T21:27:55.044Z,88.10
2022-11-29T21:30:23.903Z,85.45
2022-11-29T21:32:51.191Z,86.55
2022-11-29T21:35:18.263Z,80.25
2022-11-29T21:37:45.661Z,84.80
2022-11-29T21:40:14.135Z,87.38
2022-11-29T21:42:41.079Z,88.50
2022-11-29T21:45:14.825Z,87.07
2022-11-29T21:47:42.718Z,84.30
2022-11-29T21:50:09.838Z,82.28
2022-11-29T21:52:36.513Z,82.93
2022-11-29T21:55:03.883Z,86.93
2022-11-29T21:57:30.516Z,90.95
2022-11-29T21:59:57.174Z,82.32
2022-11-29T22:02:23.924Z,81.20
2022-11-29T22:04:50.665Z,87.63
2022-11-29T22:07:17.472Z,85.28
2022-11-29T22:09:44.185Z,89.25
2022-11-29T22:12:32.469Z,90.53
2022-11-29T22:14:57.494Z,81.82
2022-11-29T22:17:24.163Z,90.30
2022-11-29T22:19:50.877Z,89.20
2022-11-29T22:22:17.590Z,80.68
2022-11-29T22:24:44.418Z,84.65
2022-11-29T22:27:11.242Z,89.97
2022-11-29T22:29:37.840Z,86.72
2022-11-29T22:32:04.670Z,81.07
2022-11-29T22:34:31.307Z,79.80
2022-11-29T22:36:58.015Z,80.63
2022-11-29T22:39:24.763Z,81.38
2022-11-29T22:41:54.701Z,79.75
2022-11-29T22:44:21.807Z,81.15
2022-11-29T22:46:48.598Z,84.97
2022-11-29T22:49:15.347Z,83.47
2022-11-29T22:51:42.458Z,84.90
2022-11-29T22:54:11.614Z,79.70
2022-11-29T22:56:40.232Z,88.70
2022-11-29T22:59:07.647Z,80.93
2022-11-29T23:01:36.402Z,80.68
2022-11-29T23:04:05.980Z,85.60
2022-11-29T23:06:52.890Z,84.25
2022-11-29T23:09:22.339Z,85.07
2022-11-29T23:11:55.616Z,86.85
2022-11-29T23:14:22.973Z,85.65
2022-11-29T23:16:49.792Z,87.25
2022-11-29T23:19:17.244Z,87.50
2022-11-29T23:21:45.691Z,84.00
2022-11-29T23:24:13.234Z,82.72
2022-11-29T23:26:42.664Z,84.20
2022-11-29T23:29:12.594Z,84.30
2022-11-29T23:31:39.712Z,82.95
2022-11-29T23:34:06.422Z,87.63
2022-11-29T23:36:33.329Z,87.68
2022-11-29T23:39:00.463Z,87.03
2022-11-29T23:41:27.106Z,87.93
2022-11-29T23:43:53.740Z,83.40
2022-11-29T23:46:23.259Z,82.57
2022-11-29T23:48:50.322Z,89.18
2022-11-29T23:51:18.172Z,93.40
2022-11-29T23:53:46.587Z,87.70
2022-11-29T23:56:16.125Z,94.50
2022-11-29T23:58:43.887Z,84.72
